createdAt,value
2017-01-31T00:00:19.546Z,4.83
2017-01-31T00:01:19.496Z,4.8
2017-01-31T00:02:19.935Z,4.75
2017-01-31T00:03:19.557Z,4.84
2017-01-31T00:04:19.923Z,4.76
2017-01-31T00:05:19.496Z,4.76
2017-01-31T00:06:19.462Z,4.68
2017-01-31T00:07:19.804Z,4.76
2017-01-31T00:08:19.384Z,4.68
2017-01-31T00:09:19.307Z,4.85
2017-01-31T00:10:19.279Z,4.84
2017-01-31T00:11:19.755Z,4.79
2017-01-31T00:12:18.825Z,4.83
2017-01-31T00:13:19.219Z,4.84
2017-01-31T00:14:19.189Z,4.76
2017-01-31T00:15:19.208Z,4.79
2017-01-31T00:16:19.128Z,4.83
2017-01-31T00:17:19.098Z,4.73
2017-01-31T00:18:19.486Z,4.72
2017-01-31T00:19:19.546Z,4.77
2017-01-31T00:20:19.437Z,4.76
2017-01-31T00:21:19.095Z,4.75
2017-01-31T00:22:19.384Z,4.84
2017-01-31T00:23:18.968Z,4.88
2017-01-31T00:24:18.932Z,4.94
2017-01-31T00:25:19.317Z,4.95
2017-01-31T00:26:19.284Z,4.98
2017-01-31T00:27:19.347Z,4.96
2017-01-31T00:28:18.442Z,4.95
2017-01-31T00:29:19.220Z,4.96
2017-01-31T00:30:18.390Z,5.01
2017-01-31T00:31:18.847Z,4.99
2017-01-31T00:32:19.150Z,4.87
2017-01-31T00:33:19.108Z,4.85
2017-01-31T00:34:18.679Z,4.75
2017-01-31T00:35:18.665Z,4.87
2017-01-31T00:36:18.632Z,4.87
2017-01-31T00:37:18.685Z,4.95
2017-01-31T00:38:18.179Z,4.98
2017-01-31T00:39:18.566Z,4.95
2017-01-31T00:40:18.129Z,4.99
2017-01-31T00:41:18.504Z,4.96
2017-01-31T00:42:18.093Z,4.83
2017-01-31T00:43:18.513Z,4.8
2017-01-31T00:44:18.444Z,4.88
2017-01-31T00:45:18.820Z,4.84
2017-01-31T00:46:18.782Z,4.76
2017-01-31T00:47:18.372Z,4.85
2017-01-31T00:48:18.737Z,5.06
2017-01-31T00:49:18.319Z,5.1
2017-01-31T00:50:18.278Z,5.13
2017-01-31T00:51:18.662Z,5.06
2017-01-31T00:52:17.849Z,5.09
2017-01-31T00:53:18.616Z,5.03
2017-01-31T00:54:17.788Z,5.05
2017-01-31T00:55:18.576Z,5.13
2017-01-31T00:56:18.158Z,5.05
2017-01-31T00:57:18.520Z,5.06
2017-01-31T00:58:17.691Z,5.11
2017-01-31T00:59:18.457Z,5.05
2017-01-31T01:00:18.453Z,5.1
2017-01-31T01:01:18.423Z,5.06
2017-01-31T01:02:17.992Z,5.03
2017-01-31T01:03:17.574Z,5.16
2017-01-31T01:04:17.936Z,5.11
2017-01-31T01:05:17.939Z,4.96
2017-01-31T01:06:18.300Z,4.92
2017-01-31T01:07:17.469Z,4.88
2017-01-31T01:08:17.847Z,4.76
2017-01-31T01:09:17.818Z,4.75
2017-01-31T01:10:17.806Z,4.64
2017-01-31T01:11:18.272Z,4.68
2017-01-31T01:12:18.151Z,4.77
2017-01-31T01:13:17.800Z,4.79
2017-01-31T01:14:18.099Z,4.77
2017-01-31T01:15:17.368Z,4.94
2017-01-31T01:16:18.060Z,4.91
2017-01-31T01:17:17.772Z,5.01
2017-01-31T01:18:18.004Z,4.92
2017-01-31T01:19:17.981Z,4.99
2017-01-31T01:20:17.550Z,5.09
2017-01-31T01:21:17.933Z,5.09
2017-01-31T01:22:17.493Z,4.95
2017-01-31T01:23:17.929Z,4.88
2017-01-31T01:24:17.849Z,4.88
2017-01-31T01:25:17.831Z,4.91
2017-01-31T01:26:16.997Z,4.88
2017-01-31T01:27:17.775Z,4.92
2017-01-31T01:28:16.945Z,4.94
2017-01-31T01:29:17.835Z,4.98
2017-01-31T01:30:17.347Z,4.96
2017-01-31T01:31:16.889Z,4.94
2017-01-31T01:32:17.248Z,4.85
2017-01-31T01:33:17.356Z,4.76
2017-01-31T01:34:17.245Z,4.72
2017-01-31T01:35:17.590Z,4.75
2017-01-31T01:36:17.559Z,4.77
2017-01-31T01:37:17.533Z,4.79
2017-01-31T01:38:17.600Z,4.88
2017-01-31T01:39:17.481Z,4.8
2017-01-31T01:40:17.458Z,4.88
2017-01-31T01:41:17.493Z,4.79
2017-01-31T01:42:17.020Z,4.79
2017-01-31T01:43:17.481Z,4.8
2017-01-31T01:44:17.356Z,4.83
2017-01-31T01:45:16.925Z,4.8
2017-01-31T01:46:16.500Z,4.79
2017-01-31T01:47:17.285Z,4.84
2017-01-31T01:48:17.268Z,4.8
2017-01-31T01:49:16.835Z,4.99
2017-01-31T01:50:16.804Z,4.98
2017-01-31T01:51:17.255Z,4.96
2017-01-31T01:52:16.769Z,4.94
2017-01-31T01:53:17.136Z,5.01
2017-01-31T01:54:16.710Z,4.88
2017-01-31T01:55:16.278Z,4.85
2017-01-31T01:56:17.084Z,4.91
2017-01-31T01:57:17.093Z,4.99
2017-01-31T01:58:17.039Z,4.94
2017-01-31T01:59:17.048Z,4.91
2017-01-31T02:00:16.145Z,4.88
2017-01-31T02:01:16.951Z,4.77
2017-01-31T02:02:16.592Z,4.76
2017-01-31T02:03:16.480Z,4.79
2017-01-31T02:04:16.552Z,4.77
2017-01-31T02:05:16.445Z,4.85
2017-01-31T02:06:16.839Z,4.94
2017-01-31T02:07:15.989Z,4.88
2017-01-31T02:08:16.766Z,4.92
2017-01-31T02:09:16.751Z,4.79
2017-01-31T02:10:16.323Z,4.8
2017-01-31T02:11:15.890Z,4.88
2017-01-31T02:12:16.268Z,4.88
2017-01-31T02:13:15.834Z,4.79
2017-01-31T02:14:16.211Z,4.96
2017-01-31T02:15:15.784Z,4.94
2017-01-31T02:16:16.175Z,5.01
2017-01-31T02:17:16.543Z,5.1
2017-01-31T02:18:16.116Z,5.03
2017-01-31T02:19:16.515Z,5.1
2017-01-31T02:20:16.061Z,4.99
2017-01-31T02:21:16.056Z,4.92
2017-01-31T02:22:16.020Z,4.98
2017-01-31T02:23:15.991Z,4.95
2017-01-31T02:24:15.969Z,5.06
2017-01-31T02:25:15.951Z,5.03
2017-01-31T02:26:15.918Z,4.94
2017-01-31T02:27:16.295Z,4.95
2017-01-31T02:28:15.877Z,4.95
2017-01-31T02:29:16.246Z,4.98
2017-01-31T02:30:16.221Z,4.95
2017-01-31T02:31:15.391Z,4.96
2017-01-31T02:32:16.226Z,4.95
2017-01-31T02:33:15.740Z,4.91
2017-01-31T02:34:16.168Z,4.8
2017-01-31T02:35:15.703Z,4.75
2017-01-31T02:36:16.071Z,4.84
2017-01-31T02:37:16.046Z,4.87
2017-01-31T02:38:16.073Z,4.84
2017-01-31T02:39:15.592Z,4.87
2017-01-31T02:40:15.575Z,4.83
2017-01-31T02:41:15.601Z,4.83
2017-01-31T02:42:16.027Z,4.8
2017-01-31T02:43:15.509Z,4.91
2017-01-31T02:44:15.500Z,4.91
2017-01-31T02:45:15.460Z,4.8
2017-01-31T02:46:15.830Z,4.96
2017-01-31T02:47:15.805Z,4.85
2017-01-31T02:48:15.004Z,4.91
2017-01-31T02:49:14.949Z,4.96
2017-01-31T02:50:15.383Z,4.98
2017-01-31T02:51:15.706Z,4.96
2017-01-31T02:52:15.721Z,4.98
2017-01-31T02:53:15.678Z,4.99
2017-01-31T02:54:15.284Z,4.95
2017-01-31T02:55:15.199Z,5.02
2017-01-31T02:56:15.238Z,5.06
2017-01-31T02:57:14.752Z,5.03
2017-01-31T02:58:15.134Z,5.06
2017-01-31T02:59:14.690Z,5.1
2017-01-31T03:00:15.500Z,5.11
2017-01-31T03:01:15.052Z,5.1
2017-01-31T03:02:14.659Z,5.13
2017-01-31T03:03:15.004Z,5.1
2017-01-31T03:04:14.986Z,5.03
2017-01-31T03:05:15.367Z,5.2
2017-01-31T03:06:14.927Z,5.06
2017-01-31T03:07:14.906Z,5.13
2017-01-31T03:08:15.285Z,5.03
2017-01-31T03:09:15.264Z,5.01
2017-01-31T03:10:15.245Z,4.94
2017-01-31T03:11:15.257Z,4.96
2017-01-31T03:12:15.193Z,4.98
2017-01-31T03:13:14.352Z,5.02
2017-01-31T03:14:15.162Z,5.03
2017-01-31T03:15:14.302Z,4.96
2017-01-31T03:16:14.674Z,4.8
2017-01-31T03:17:15.064Z,4.83
2017-01-31T03:18:14.230Z,4.94
2017-01-31T03:19:15.011Z,4.94
2017-01-31T03:20:15.001Z,4.99
2017-01-31T03:21:14.968Z,4.77
2017-01-31T03:22:14.529Z,4.85
2017-01-31T03:23:14.512Z,4.73
2017-01-31T03:24:14.498Z,4.79
2017-01-31T03:25:14.882Z,4.75
2017-01-31T03:26:14.075Z,4.88
2017-01-31T03:27:14.417Z,4.91
2017-01-31T03:28:14.843Z,4.79
2017-01-31T03:29:14.365Z,4.87
2017-01-31T03:30:14.327Z,4.77
2017-01-31T03:31:14.322Z,4.88
2017-01-31T03:32:14.311Z,4.88
2017-01-31T03:33:14.263Z,4.94
2017-01-31T03:34:14.690Z,4.92
2017-01-31T03:35:14.211Z,4.92
2017-01-31T03:36:14.188Z,4.95
2017-01-31T03:37:14.568Z,4.92
2017-01-31T03:38:14.148Z,4.98
2017-01-31T03:39:14.518Z,4.95
2017-01-31T03:40:13.689Z,4.96
2017-01-31T03:41:14.068Z,4.92
2017-01-31T03:42:13.639Z,4.92
2017-01-31T03:43:14.027Z,4.96
2017-01-31T03:44:13.996Z,4.99
2017-01-31T03:45:13.567Z,4.96
2017-01-31T03:46:13.933Z,4.92
2017-01-31T03:47:13.923Z,4.96
2017-01-31T03:48:13.894Z,4.92
2017-01-31T03:49:13.878Z,4.92
2017-01-31T03:50:14.243Z,4.83
2017-01-31T03:51:13.422Z,4.85
2017-01-31T03:52:14.198Z,4.95
2017-01-31T03:53:13.769Z,4.88
2017-01-31T03:54:13.734Z,4.84
2017-01-31T03:55:13.323Z,4.79
2017-01-31T03:56:13.690Z,4.76
2017-01-31T03:57:13.670Z,4.77
2017-01-31T03:58:13.638Z,4.72
2017-01-31T03:59:13.669Z,4.75
2017-01-31T04:00:13.604Z,4.75
2017-01-31T04:01:13.568Z,4.7
2017-01-31T04:02:13.545Z,4.8
2017-01-31T04:03:13.936Z,4.79
2017-01-31T04:04:13.901Z,4.8
2017-01-31T04:05:13.485Z,4.79
2017-01-31T04:06:13.455Z,4.67
2017-01-31T04:07:13.868Z,4.67
2017-01-31T04:08:13.810Z,4.8
2017-01-31T04:09:13.475Z,4.5
2017-01-31T04:10:13.743Z,4.59
2017-01-31T04:11:13.831Z,4.65
2017-01-31T04:12:13.297Z,4.57
2017-01-31T04:13:13.701Z,4.58
2017-01-31T04:14:13.240Z,4.54
2017-01-31T04:15:12.878Z,4.59
2017-01-31T04:16:13.650Z,4.49
2017-01-31T04:17:13.229Z,4.52
2017-01-31T04:18:13.150Z,4.65
2017-01-31T04:19:13.129Z,4.67
2017-01-31T04:20:13.150Z,4.76
2017-01-31T04:21:12.675Z,4.83
2017-01-31T04:22:13.041Z,4.83
2017-01-31T04:23:13.036Z,4.83
2017-01-31T04:24:13.056Z,4.85
2017-01-31T04:25:12.995Z,4.84
2017-01-31T04:26:12.950Z,4.91
2017-01-31T04:27:13.348Z,4.87
2017-01-31T04:28:12.897Z,4.76
2017-01-31T04:29:12.873Z,4.87
2017-01-31T04:30:13.255Z,4.87
2017-01-31T04:31:12.831Z,4.8
2017-01-31T04:32:13.249Z,4.73
2017-01-31T04:33:12.372Z,4.79
2017-01-31T04:34:12.762Z,4.75
2017-01-31T04:35:12.729Z,4.73
2017-01-31T04:36:12.696Z,4.73
2017-01-31T04:37:12.676Z,4.73
2017-01-31T04:38:13.057Z,4.7
2017-01-31T04:39:13.032Z,4.65
2017-01-31T04:40:13.071Z,4.68
2017-01-31T04:41:13.045Z,4.57
2017-01-31T04:42:12.558Z,4.5
2017-01-31T04:43:12.527Z,4.62
2017-01-31T04:44:12.911Z,4.61
2017-01-31T04:45:12.485Z,4.57
2017-01-31T04:46:12.462Z,4.58
2017-01-31T04:47:12.422Z,4.67
2017-01-31T04:48:12.404Z,4.54
2017-01-31T04:49:12.381Z,4.64
2017-01-31T04:50:11.980Z,4.72
2017-01-31T04:51:12.333Z,4.77
2017-01-31T04:52:12.311Z,4.75
2017-01-31T04:53:12.286Z,4.76
2017-01-31T04:54:12.651Z,4.76
2017-01-31T04:55:12.691Z,4.75
2017-01-31T04:56:12.205Z,4.79
2017-01-31T04:57:12.588Z,4.8
2017-01-31T04:58:12.551Z,4.77
2017-01-31T04:59:11.727Z,4.61
2017-01-31T05:00:12.507Z,4.57
2017-01-31T05:01:12.071Z,4.58
2017-01-31T05:02:11.655Z,4.52
2017-01-31T05:03:12.460Z,4.41
2017-01-31T05:04:12.009Z,4.4
2017-01-31T05:05:12.392Z,4.39
2017-01-31T05:06:11.970Z,4.5
2017-01-31T05:07:11.519Z,4.46
2017-01-31T05:08:11.906Z,4.57
2017-01-31T05:09:11.883Z,4.54
2017-01-31T05:10:11.855Z,4.57
2017-01-31T05:11:11.427Z,4.68
2017-01-31T05:12:12.219Z,4.72
2017-01-31T05:13:11.445Z,4.79
2017-01-31T05:14:12.160Z,4.67
2017-01-31T05:15:11.731Z,4.73
2017-01-31T05:16:12.109Z,4.65
2017-01-31T05:17:11.684Z,4.52
2017-01-31T05:18:11.653Z,4.59
2017-01-31T05:19:12.037Z,4.62
2017-01-31T05:20:12.012Z,4.62
2017-01-31T05:21:11.574Z,4.52
2017-01-31T05:22:11.964Z,4.43
2017-01-31T05:23:11.954Z,4.57
2017-01-31T05:24:11.512Z,4.52
2017-01-31T05:25:11.485Z,4.54
2017-01-31T05:26:11.867Z,4.52
2017-01-31T05:27:11.019Z,4.76
2017-01-31T05:28:11.430Z,4.64
2017-01-31T05:29:11.383Z,4.65
2017-01-31T05:30:11.760Z,4.55
2017-01-31T05:31:10.942Z,4.61
2017-01-31T05:32:11.713Z,4.64
2017-01-31T05:33:11.281Z,4.68
2017-01-31T05:34:11.359Z,4.62
2017-01-31T05:35:11.639Z,4.65
2017-01-31T05:36:11.278Z,4.79
2017-01-31T05:37:11.216Z,4.72
2017-01-31T05:38:10.754Z,4.76
2017-01-31T05:39:11.138Z,4.68
2017-01-31T05:40:10.697Z,4.72
2017-01-31T05:41:11.087Z,4.7
2017-01-31T05:42:11.056Z,4.75
2017-01-31T05:43:11.031Z,4.92
2017-01-31T05:44:11.422Z,4.76
2017-01-31T05:45:10.615Z,4.79
2017-01-31T05:46:11.362Z,4.65
2017-01-31T05:47:11.338Z,4.77
2017-01-31T05:48:11.326Z,4.75
2017-01-31T05:49:10.480Z,4.84
2017-01-31T05:50:10.862Z,4.84
2017-01-31T05:51:10.826Z,4.79
2017-01-31T05:52:10.810Z,4.84
2017-01-31T05:53:11.191Z,4.87
2017-01-31T05:54:10.359Z,4.75
2017-01-31T05:55:11.158Z,4.72
2017-01-31T05:56:10.711Z,4.83
2017-01-31T05:57:10.700Z,4.83
2017-01-31T05:58:10.257Z,4.76
2017-01-31T05:59:11.096Z,4.67
2017-01-31T06:00:10.215Z,4.72
2017-01-31T06:01:10.994Z,4.7
2017-01-31T06:02:11.042Z,4.67
2017-01-31T06:03:10.535Z,4.7
2017-01-31T06:04:10.922Z,4.77
2017-01-31T06:05:10.890Z,4.77
2017-01-31T06:06:10.471Z,4.75
2017-01-31T06:07:10.846Z,4.79
2017-01-31T06:08:10.410Z,4.88
2017-01-31T06:09:10.825Z,4.8
2017-01-31T06:10:09.963Z,4.77
2017-01-31T06:11:10.330Z,4.75
2017-01-31T06:12:10.765Z,4.77
2017-01-31T06:13:10.698Z,4.83
2017-01-31T06:14:10.678Z,4.79
2017-01-31T06:15:10.643Z,4.62
2017-01-31T06:16:10.212Z,4.65
2017-01-31T06:17:10.195Z,4.79
2017-01-31T06:18:10.601Z,4.87
2017-01-31T06:19:10.133Z,4.8
2017-01-31T06:20:10.109Z,4.91
2017-01-31T06:21:10.092Z,4.91
2017-01-31T06:22:10.063Z,4.7
2017-01-31T06:23:09.634Z,4.65
2017-01-31T06:24:10.473Z,4.62
2017-01-31T06:25:10.393Z,4.67
2017-01-31T06:26:10.001Z,4.65
2017-01-31T06:27:10.343Z,4.77
2017-01-31T06:28:09.927Z,4.76
2017-01-31T06:29:10.300Z,4.76
2017-01-31T06:30:10.264Z,4.79
2017-01-31T06:31:09.846Z,4.75
2017-01-31T06:32:09.858Z,4.77
2017-01-31T06:33:10.190Z,4.83
2017-01-31T06:34:10.170Z,4.72
2017-01-31T06:35:09.743Z,4.79
2017-01-31T06:36:09.432Z,4.65
2017-01-31T06:37:10.091Z,4.64
2017-01-31T06:38:09.777Z,4.72
2017-01-31T06:39:09.686Z,4.72
2017-01-31T06:40:09.199Z,4.76
2017-01-31T06:41:09.991Z,4.76
2017-01-31T06:42:09.957Z,4.84
2017-01-31T06:43:09.963Z,4.83
2017-01-31T06:44:09.923Z,4.77
2017-01-31T06:45:09.896Z,4.68
2017-01-31T06:46:09.481Z,4.62
2017-01-31T06:47:09.440Z,4.65
2017-01-31T06:48:09.814Z,4.67
2017-01-31T06:49:09.457Z,4.72
2017-01-31T06:50:09.770Z,4.7
2017-01-31T06:51:09.746Z,4.76
2017-01-31T06:52:08.929Z,4.67
2017-01-31T06:53:09.317Z,4.7
2017-01-31T06:54:09.674Z,4.7
2017-01-31T06:55:09.375Z,4.7
2017-01-31T06:56:09.623Z,4.67
2017-01-31T06:57:09.588Z,4.62
2017-01-31T06:58:09.161Z,4.54
2017-01-31T06:59:09.155Z,4.55
2017-01-31T07:00:09.165Z,4.54
2017-01-31T07:01:09.186Z,4.55
2017-01-31T07:02:09.072Z,4.62
2017-01-31T07:03:08.634Z,4.7
2017-01-31T07:04:08.642Z,4.7
2017-01-31T07:05:08.592Z,4.77
2017-01-31T07:06:08.676Z,4.68
2017-01-31T07:07:08.540Z,4.75
2017-01-31T07:08:08.920Z,4.75
2017-01-31T07:09:09.292Z,4.76
2017-01-31T07:10:09.327Z,4.79
2017-01-31T07:11:08.841Z,4.62
2017-01-31T07:12:08.835Z,4.68
2017-01-31T07:13:08.804Z,4.65
2017-01-31T07:14:08.776Z,4.73
2017-01-31T07:15:08.736Z,4.76
2017-01-31T07:16:09.125Z,4.7
2017-01-31T07:17:08.701Z,4.73
2017-01-31T07:18:08.727Z,4.64
2017-01-31T07:19:08.652Z,4.72
2017-01-31T07:20:09.034Z,4.83
2017-01-31T07:21:08.209Z,4.62
2017-01-31T07:22:08.578Z,4.68
2017-01-31T07:23:08.551Z,4.79
2017-01-31T07:24:08.916Z,4.77
2017-01-31T07:25:08.124Z,4.72
2017-01-31T07:26:08.481Z,4.73
2017-01-31T07:27:08.879Z,4.73
2017-01-31T07:28:08.829Z,4.67
2017-01-31T07:29:08.808Z,4.75
2017-01-31T07:30:08.388Z,4.8
2017-01-31T07:31:07.949Z,4.83
2017-01-31T07:32:08.730Z,4.79
2017-01-31T07:33:08.697Z,4.75
2017-01-31T07:34:08.306Z,4.77
2017-01-31T07:35:08.678Z,4.77
2017-01-31T07:36:08.626Z,4.76
2017-01-31T07:37:07.785Z,4.73
2017-01-31T07:38:08.565Z,4.67
2017-01-31T07:39:08.562Z,4.68
2017-01-31T07:40:07.706Z,4.58
2017-01-31T07:41:08.500Z,4.57
2017-01-31T07:42:08.476Z,4.54
2017-01-31T07:43:08.451Z,4.55
2017-01-31T07:44:08.031Z,4.65
2017-01-31T07:45:08.017Z,4.65
2017-01-31T07:46:07.979Z,4.68
2017-01-31T07:47:07.940Z,4.64
2017-01-31T07:48:08.324Z,4.67
2017-01-31T07:49:07.519Z,4.65
2017-01-31T07:50:08.279Z,4.8
2017-01-31T07:51:07.860Z,4.76
2017-01-31T07:52:07.819Z,4.5
2017-01-31T07:53:07.886Z,4.34
2017-01-31T07:54:07.768Z,4.47
2017-01-31T07:55:08.154Z,4.54
2017-01-31T07:56:07.712Z,4.5
2017-01-31T07:57:07.715Z,4.52
2017-01-31T07:58:07.279Z,4.58
2017-01-31T07:59:07.649Z,4.58
2017-01-31T08:00:07.623Z,4.55
2017-01-31T08:01:07.672Z,4.54
2017-01-31T08:02:07.178Z,4.67
2017-01-31T08:03:07.947Z,4.67
2017-01-31T08:04:07.522Z,4.73
2017-01-31T08:05:07.516Z,4.83
2017-01-31T08:06:07.479Z,4.75
2017-01-31T08:07:07.134Z,4.76
2017-01-31T08:08:07.429Z,4.83
2017-01-31T08:09:07.800Z,4.79
2017-01-31T08:10:07.380Z,4.72
2017-01-31T08:11:07.350Z,4.47
2017-01-31T08:12:06.966Z,4.57
2017-01-31T08:13:07.715Z,4.55
2017-01-31T08:14:07.685Z,4.47
2017-01-31T08:15:07.656Z,4.55
2017-01-31T08:16:07.223Z,4.65
2017-01-31T08:17:07.203Z,4.54
2017-01-31T08:18:07.569Z,4.68
2017-01-31T08:19:07.545Z,4.7
2017-01-31T08:20:07.551Z,4.76
2017-01-31T08:21:07.101Z,4.72
2017-01-31T08:22:06.671Z,4.76
2017-01-31T08:23:06.641Z,4.75
2017-01-31T08:24:07.033Z,4.85
2017-01-31T08:25:07.006Z,4.91
2017-01-31T08:26:06.575Z,4.96
2017-01-31T08:27:06.950Z,4.92
2017-01-31T08:28:06.936Z,5.05
2017-01-31T08:29:07.336Z,4.96
2017-01-31T08:30:06.876Z,5.03
2017-01-31T08:31:07.313Z,5.01
2017-01-31T08:32:07.234Z,4.92
2017-01-31T08:33:07.235Z,4.92
2017-01-31T08:34:06.770Z,4.87
2017-01-31T08:35:07.158Z,4.8
2017-01-31T08:36:07.120Z,4.85
2017-01-31T08:37:07.142Z,4.94
2017-01-31T08:38:06.684Z,4.98
2017-01-31T08:39:06.661Z,4.94
2017-01-31T08:40:06.617Z,5.02
2017-01-31T08:41:06.197Z,5.06
2017-01-31T08:42:06.979Z,5.01
2017-01-31T08:43:06.553Z,5.01
2017-01-31T08:44:06.124Z,5.13
2017-01-31T08:45:06.508Z,5.1
2017-01-31T08:46:06.875Z,5.05
2017-01-31T08:47:06.450Z,5.06
2017-01-31T08:48:06.834Z,5.16
2017-01-31T08:49:06.407Z,5.19
2017-01-31T08:50:06.386Z,5.1
2017-01-31T08:51:06.754Z,5.02
2017-01-31T08:52:06.803Z,5.09
2017-01-31T08:53:06.313Z,5.03
2017-01-31T08:54:06.702Z,5.1
2017-01-31T08:55:06.659Z,5.17
2017-01-31T08:56:06.234Z,5.11
2017-01-31T08:57:06.198Z,5.16
2017-01-31T08:58:06.667Z,5.21
2017-01-31T08:59:05.758Z,5.23
2017-01-31T09:00:06.151Z,5.21
2017-01-31T09:01:06.112Z,5.23
2017-01-31T09:02:06.504Z,5.1
2017-01-31T09:03:06.457Z,5.14
2017-01-31T09:04:06.438Z,4.98
2017-01-31T09:05:06.410Z,4.94
2017-01-31T09:06:05.981Z,4.96
2017-01-31T09:07:05.955Z,4.92
2017-01-31T09:08:05.639Z,4.96
2017-01-31T09:09:06.318Z,5.05
2017-01-31T09:10:06.291Z,5.11
2017-01-31T09:11:05.457Z,5.14
2017-01-31T09:12:05.905Z,5.01
2017-01-31T09:13:06.226Z,5.14
2017-01-31T09:14:05.803Z,5.09
2017-01-31T09:15:05.755Z,5.11
2017-01-31T09:16:05.400Z,5.19
2017-01-31T09:17:05.765Z,5.09
2017-01-31T09:18:05.687Z,5.06
2017-01-31T09:19:06.210Z,5.06
2017-01-31T09:20:05.739Z,5.05
2017-01-31T09:21:05.625Z,5.05
2017-01-31T09:22:05.596Z,5.13
2017-01-31T09:23:05.582Z,5.13
2017-01-31T09:24:05.622Z,5.09
2017-01-31T09:25:05.929Z,5.06
2017-01-31T09:26:05.917Z,5.13
2017-01-31T09:27:05.878Z,5.16
2017-01-31T09:28:05.547Z,5.05
2017-01-31T09:29:05.841Z,4.99
2017-01-31T09:30:05.816Z,5.05
2017-01-31T09:31:05.784Z,4.94
2017-01-31T09:32:05.343Z,4.98
2017-01-31T09:33:05.720Z,4.98
2017-01-31T09:34:05.715Z,4.85
2017-01-31T09:35:04.874Z,4.98
2017-01-31T09:36:05.252Z,5.05
2017-01-31T09:37:04.820Z,5.11
2017-01-31T09:38:04.802Z,5.17
2017-01-31T09:39:05.592Z,5.19
2017-01-31T09:40:05.566Z,5.11
2017-01-31T09:41:05.134Z,5.1
2017-01-31T09:42:05.509Z,5.02
2017-01-31T09:43:05.487Z,5.09
2017-01-31T09:44:05.458Z,5.11
2017-01-31T09:45:05.027Z,5.16
2017-01-31T09:46:05.404Z,5.19
2017-01-31T09:47:05.395Z,5.14
2017-01-31T09:48:04.949Z,5.26
2017-01-31T09:49:05.338Z,5.29
2017-01-31T09:50:04.917Z,5.29
2017-01-31T09:51:04.495Z,5.31
2017-01-31T09:52:05.283Z,5.17
2017-01-31T09:53:05.240Z,5.09
2017-01-31T09:54:04.810Z,5.03
2017-01-31T09:55:04.393Z,5.1
2017-01-31T09:56:05.170Z,5.02
2017-01-31T09:57:05.141Z,5.11
2017-01-31T09:58:05.118Z,5.03
2017-01-31T09:59:05.086Z,5.05
2017-01-31T10:00:05.069Z,5.02
2017-01-31T10:01:05.036Z,5.03
2017-01-31T10:02:05.022Z,5.11
2017-01-31T10:03:04.586Z,5.26
2017-01-31T10:04:04.565Z,5.24
2017-01-31T10:05:04.953Z,5.26
2017-01-31T10:06:04.916Z,5.29
2017-01-31T10:07:04.073Z,5.21
2017-01-31T10:08:04.869Z,5.09
2017-01-31T10:09:04.043Z,5.09
2017-01-31T10:10:04.419Z,5.1
2017-01-31T10:11:04.800Z,5.11
2017-01-31T10:12:03.965Z,5.23
2017-01-31T10:13:03.942Z,5.16
2017-01-31T10:14:03.970Z,5.17
2017-01-31T10:15:04.732Z,5.23
2017-01-31T10:16:04.682Z,5.32
2017-01-31T10:17:04.651Z,5.34
2017-01-31T10:18:04.225Z,5.2
2017-01-31T10:19:04.195Z,5.23
2017-01-31T10:20:03.757Z,5.28
2017-01-31T10:21:04.159Z,5.26
2017-01-31T10:22:04.118Z,5.34
2017-01-31T10:23:04.107Z,5.38
2017-01-31T10:24:04.471Z,5.37
2017-01-31T10:25:04.448Z,5.35
2017-01-31T10:26:04.420Z,5.37
2017-01-31T10:27:04.036Z,5.44
2017-01-31T10:28:03.972Z,5.37
2017-01-31T10:29:03.961Z,5.42
2017-01-31T10:30:04.343Z,5.53
2017-01-31T10:31:03.910Z,5.41
2017-01-31T10:32:04.299Z,5.37
2017-01-31T10:33:04.269Z,5.38
2017-01-31T10:34:03.824Z,5.39
2017-01-31T10:35:03.861Z,5.31
2017-01-31T10:36:04.179Z,5.44
2017-01-31T10:37:03.759Z,5.42
2017-01-31T10:38:04.139Z,5.46
2017-01-31T10:39:04.105Z,5.34
2017-01-31T10:40:04.094Z,5.37
2017-01-31T10:41:03.656Z,5.39
2017-01-31T10:42:03.636Z,5.46
2017-01-31T10:43:03.225Z,5.44
2017-01-31T10:44:03.606Z,5.41
2017-01-31T10:45:03.554Z,5.42
2017-01-31T10:46:03.537Z,5.46
2017-01-31T10:47:03.549Z,5.5
2017-01-31T10:48:03.923Z,5.5
2017-01-31T10:49:03.878Z,5.41
2017-01-31T10:50:03.939Z,5.37
2017-01-31T10:51:03.850Z,5.38
2017-01-31T10:52:03.393Z,5.19
2017-01-31T10:53:03.061Z,5.19
2017-01-31T10:54:03.739Z,5.29
2017-01-31T10:55:03.744Z,5.28
2017-01-31T10:56:03.359Z,5.42
2017-01-31T10:57:03.659Z,5.31
2017-01-31T10:58:03.644Z,5.31
2017-01-31T10:59:03.627Z,5.34
2017-01-31T11:00:03.290Z,5.31
2017-01-31T11:01:02.795Z,5.35
2017-01-31T11:02:03.555Z,5.24
2017-01-31T11:03:03.530Z,5.21
2017-01-31T11:04:03.094Z,5.31
2017-01-31T11:05:03.491Z,5.34
2017-01-31T11:06:02.638Z,5.32
2017-01-31T11:07:03.032Z,5.41
2017-01-31T11:08:03.061Z,5.55
2017-01-31T11:09:03.370Z,5.53
2017-01-31T11:10:03.008Z,5.31
2017-01-31T11:11:03.331Z,5.31
2017-01-31T11:12:03.309Z,5.38
2017-01-31T11:13:02.480Z,5.31
2017-01-31T11:14:03.253Z,5.35
2017-01-31T11:15:02.834Z,5.29
2017-01-31T11:16:02.808Z,5.37
2017-01-31T11:17:02.787Z,5.35
2017-01-31T11:18:02.777Z,5.41
2017-01-31T11:19:02.796Z,5.5
2017-01-31T11:20:02.705Z,5.44
2017-01-31T11:21:03.098Z,5.35
2017-01-31T11:22:02.255Z,5.37
2017-01-31T11:23:02.238Z,5.24
2017-01-31T11:24:03.025Z,5.41
2017-01-31T11:25:02.995Z,5.44
2017-01-31T11:26:02.972Z,5.42
2017-01-31T11:27:02.937Z,5.42
2017-01-31T11:28:02.602Z,5.46
2017-01-31T11:29:02.900Z,5.47
2017-01-31T11:30:02.871Z,5.35
2017-01-31T11:31:02.046Z,5.29
2017-01-31T11:32:02.012Z,5.32
2017-01-31T11:33:02.807Z,5.38
2017-01-31T11:34:01.980Z,5.47
2017-01-31T11:35:02.744Z,5.46
2017-01-31T11:36:02.318Z,5.46
2017-01-31T11:37:02.704Z,5.41
2017-01-31T11:38:02.677Z,5.44
2017-01-31T11:39:02.648Z,5.5
2017-01-31T11:40:02.228Z,5.47
2017-01-31T11:41:02.188Z,5.57
2017-01-31T11:42:02.594Z,5.57
2017-01-31T11:43:02.549Z,5.59
2017-01-31T11:44:02.392Z,5.59
2017-01-31T11:45:02.134Z,5.55
2017-01-31T11:46:02.562Z,5.47
2017-01-31T11:47:01.655Z,5.55
2017-01-31T11:48:02.616Z,5.56
2017-01-31T11:49:02.410Z,5.57
2017-01-31T11:50:02.025Z,5.44
2017-01-31T11:51:01.952Z,5.39
2017-01-31T11:52:01.971Z,5.34
2017-01-31T11:53:01.497Z,5.44
2017-01-31T11:54:01.875Z,5.49
2017-01-31T11:55:02.259Z,5.5
2017-01-31T11:56:02.276Z,5.52
2017-01-31T11:57:01.809Z,5.46
2017-01-31T11:58:01.881Z,5.44
2017-01-31T11:59:01.764Z,5.46
2017-01-31T12:00:01.739Z,5.49
2017-01-31T12:01:02.116Z,5.42
2017-01-31T12:02:01.701Z,5.32
2017-01-31T12:03:01.670Z,5.34
2017-01-31T12:04:02.037Z,5.34
2017-01-31T12:05:02.038Z,5.35
2017-01-31T12:06:02.012Z,5.42
2017-01-31T12:07:01.561Z,5.47
2017-01-31T12:08:01.548Z,5.35
2017-01-31T12:09:01.520Z,5.34
2017-01-31T12:10:01.542Z,5.5
2017-01-31T12:11:01.462Z,5.49
2017-01-31T12:12:01.464Z,5.53
2017-01-31T12:13:01.856Z,5.6
2017-01-31T12:14:01.816Z,5.56
2017-01-31T12:15:01.388Z,5.67
2017-01-31T12:16:01.414Z,5.7
2017-01-31T12:17:01.395Z,5.65
2017-01-31T12:18:00.912Z,5.67
2017-01-31T12:19:01.745Z,5.67
2017-01-31T12:20:01.333Z,5.77
2017-01-31T12:21:01.706Z,5.75
2017-01-31T12:22:01.610Z,5.74
2017-01-31T12:23:00.779Z,5.62
2017-01-31T12:24:01.554Z,5.68
2017-01-31T12:25:01.684Z,5.68
2017-01-31T12:26:01.120Z,5.75
2017-01-31T12:27:01.500Z,5.71
2017-01-31T12:28:00.663Z,5.68
2017-01-31T12:29:01.430Z,5.63
2017-01-31T12:30:01.007Z,5.68
2017-01-31T12:31:01.398Z,5.68
2017-01-31T12:32:01.371Z,5.7
2017-01-31T12:33:00.968Z,5.7
2017-01-31T12:34:01.427Z,5.65
2017-01-31T12:35:01.294Z,5.68
2017-01-31T12:36:00.465Z,5.63
2017-01-31T12:37:00.887Z,5.68
2017-01-31T12:38:01.225Z,5.74
2017-01-31T12:39:00.799Z,5.88
2017-01-31T12:40:01.184Z,5.93
2017-01-31T12:41:00.743Z,5.86
2017-01-31T12:42:00.731Z,5.78
2017-01-31T12:43:00.313Z,5.85
2017-01-31T12:44:01.162Z,5.81
2017-01-31T12:45:00.661Z,5.88
2017-01-31T12:46:00.632Z,5.86
2017-01-31T12:47:00.197Z,5.93
2017-01-31T12:48:00.980Z,5.98
2017-01-31T12:49:00.619Z,5.95
2017-01-31T12:50:00.539Z,5.98
2017-01-31T12:51:00.904Z,5.98
2017-01-31T12:52:00.471Z,5.95
2017-01-31T12:53:00.469Z,5.93
2017-01-31T12:54:00.441Z,5.95
2017-01-31T12:55:00.415Z,5.95
2017-01-31T12:55:59.984Z,5.92
2017-01-31T12:57:00.360Z,5.98
2017-01-31T12:58:00.331Z,5.99
2017-01-31T12:59:00.723Z,5.98
2017-01-31T13:00:00.684Z,5.96
2017-01-31T13:01:00.723Z,5.99
2017-01-31T13:02:00.662Z,5.96
2017-01-31T13:03:00.222Z,5.98
2017-01-31T13:04:00.197Z,5.89
2017-01-31T13:05:00.216Z,5.89
2017-01-31T13:06:00.565Z,5.88
2017-01-31T13:07:00.551Z,5.99
2017-01-31T13:08:00.120Z,5.95
2017-01-31T13:09:00.559Z,5.93
2017-01-31T13:10:00.463Z,5.95
2017-01-31T13:11:00.079Z,5.92
2017-01-31T13:12:00.399Z,5.83
2017-01-31T13:13:00.392Z,5.85
2017-01-31T13:14:00.367Z,5.92
2017-01-31T13:14:59.578Z,5.81
2017-01-31T13:16:00.316Z,5.81
2017-01-31T13:16:59.901Z,5.75
2017-01-31T13:18:00.264Z,5.68
2017-01-31T13:19:00.316Z,5.8
2017-01-31T13:20:00.210Z,5.77